Time;durP1;ratioP1;P1;durP2;ratioP2;P2;SDS_P1;SDS_P2;PMS_P1;PMS_P2;Temp;Humidity;BMP_temperature;BMP_pressure;BME280_temperature;BME280_humidity;BME280_pressure;Samples;Min_cycle;Max_cycle;Signal;HPM_P1;HPM_P2
2024/02/17 00:01:44;;;;;;;100.80;78.00;;;;;;;;;;5011369;28;20061;-67
2024/02/17 00:04:10;;;;;;;102.75;77.93;;;;;;;;;;5009845;28;20120;-68
2024/02/17 00:06:36;;;;;;;105.20;75.00;;;;;;;;;;5003261;28;20126;-68
2024/02/17 00:09:02;;;;;;;101.55;76.40;;;;;;;;;;5018854;28;20057;-68
2024/02/17 00:11:28;;;;;;;102.90;76.57;;;;;;;;;;5001773;28;20144;-68
2024/02/17 00:13:54;;;;;;;101.03;75.60;;;;;;;;;;5011740;28;20033;-68
2024/02/17 00:16:20;;;;;;;105.03;75.47;;;;;;;;;;5009096;28;20021;-68
2024/02/17 00:18:46;;;;;;;106.60;79.90;;;;;;;;;;5009899;28;20037;-67
2024/02/17 00:21:12;;;;;;;101.35;76.80;;;;;;;;;;5010053;28;20053;-67
2024/02/17 00:23:38;;;;;;;98.90;74.13;;;;;;;;;;5010699;28;20033;-68
2024/02/17 00:26:04;;;;;;;101.72;75.90;;;;;;;;;;5009720;28;20048;-67
2024/02/17 00:28:30;;;;;;;103.13;75.07;;;;;;;;;;5011112;28;20025;-68
2024/02/17 00:30:56;;;;;;;101.45;74.47;;;;;;;;;;5007931;28;20388;-67
2024/02/17 00:33:23;;;;;;;99.95;77.00;;;;;;;;;;5012671;28;20041;-68
2024/02/17 00:35:51;;;;;;;102.68;77.45;;;;;;;;;;5015409;28;20038;-68
2024/02/17 00:38:19;;;;;;;105.07;77.10;;;;;;;;;;5008823;28;20019;-68
2024/02/17 00:40:46;;;;;;;100.55;78.90;;;;;;;;;;5010592;28;20045;-68
2024/02/17 00:43:12;;;;;;;110.38;80.20;;;;;;;;;;5030226;28;20388;-68
2024/02/17 00:45:38;;;;;;;108.65;80.45;;;;;;;;;;5013448;28;20046;-67
2024/02/17 00:48:04;;;;;;;107.60;78.88;;;;;;;;;;5014812;28;20464;-68
2024/02/17 00:50:30;;;;;;;102.57;79.35;;;;;;;;;;5010196;28;20104;-67
2024/02/17 00:52:56;;;;;;;103.05;77.93;;;;;;;;;;5015129;28;20053;-67
2024/02/17 00:55:22;;;;;;;104.20;79.07;;;;;;;;;;5013186;28;20034;-67
2024/02/17 00:57:48;;;;;;;105.30;78.85;;;;;;;;;;5014961;28;20437;-67
2024/02/17 01:00:14;;;;;;;107.80;80.88;;;;;;;;;;5012577;28;20053;-68
2024/02/17 01:02:40;;;;;;;109.82;81.85;;;;;;;;;;5029970;28;20040;-68
2024/02/17 01:05:07;;;;;;;111.47;82.03;;;;;;;;;;5012765;28;20432;-67
2024/02/17 01:07:33;;;;;;;112.07;83.57;;;;;;;;;;5014513;28;20155;-67
2024/02/17 01:09:59;;;;;;;106.90;80.32;;;;;;;;;;5008538;28;20169;-67
2024/02/17 01:12:25;;;;;;;111.10;80.57;;;;;;;;;;5010655;28;20088;-68
2024/02/17 01:14:51;;;;;;;111.95;82.55;;;;;;;;;;5012778;28;20026;-68
2024/02/17 01:17:17;;;;;;;103.25;81.15;;;;;;;;;;5014338;28;20061;-68
2024/02/17 01:19:43;;;;;;;104.40;82.38;;;;;;;;;;5012544;28;20054;-68
2024/02/17 01:22:09;;;;;;;103.57;81.47;;;;;;;;;;5009117;28;20484;-68
2024/02/17 01:24:35;;;;;;;101.65;75.32;;;;;;;;;;5010286;28;20022;-68
2024/02/17 01:27:06;;;;;;;108.40;80.40;;;;;;;;;;5013543;28;20395;-68
2024/02/17 01:29:32;;;;;;;108.70;82.13;;;;;;;;;;5010161;28;20080;-67
2024/02/17 01:31:58;;;;;;;111.43;80.25;;;;;;;;;;5013352;28;20022;-68
2024/02/17 01:34:25;;;;;;;107.05;81.28;;;;;;;;;;5011296;28;20026;-67
2024/02/17 01:36:50;;;;;;;108.85;79.72;;;;;;;;;;5014136;28;20084;-67
2024/02/17 01:39:16;;;;;;;110.82;82.40;;;;;;;;;;5011104;28;20030;-67
2024/02/17 01:41:42;;;;;;;109.80;81.32;;;;;;;;;;5005271;28;20030;-67
2024/02/17 01:44:09;;;;;;;113.72;83.93;;;;;;;;;;5004718;28;20054;-68
2024/02/17 01:46:35;;;;;;;112.88;84.00;;;;;;;;;;5013851;28;20065;-68
2024/02/17 01:49:01;;;;;;;109.47;80.28;;;;;;;;;;5009305;28;20045;-68
2024/02/17 01:51:27;;;;;;;106.40;82.03;;;;;;;;;;5012139;28;20038;-68
2024/02/17 01:53:54;;;;;;;116.57;85.07;;;;;;;;;;5009408;28;20030;-67
2024/02/17 01:56:21;;;;;;;107.10;83.43;;;;;;;;;;5013426;28;20029;-68
2024/02/17 01:58:48;;;;;;;105.70;81.60;;;;;;;;;;5013763;28;20077;-68
2024/02/17 02:01:14;;;;;;;108.65;81.97;;;;;;;;;;5008773;28;20030;-68
2024/02/17 02:03:40;;;;;;;108.32;81.80;;;;;;;;;;5011639;28;20030;-68
2024/02/17 02:06:06;;;;;;;105.20;80.35;;;;;;;;;;5011627;28;20038;-68
2024/02/17 02:08:33;;;;;;;106.68;80.80;;;;;;;;;;5013758;28;20042;-68
2024/02/17 02:11:01;;;;;;;110.18;83.18;;;;;;;;;;5003861;28;20026;-68
2024/02/17 02:13:27;;;;;;;110.82;83.07;;;;;;;;;;5010501;28;20030;-68
2024/02/17 02:15:53;;;;;;;109.07;82.05;;;;;;;;;;5005859;28;20036;-68
2024/02/17 02:18:20;;;;;;;109.38;82.70;;;;;;;;;;5009162;28;20042;-68
2024/02/17 02:20:46;;;;;;;122.65;86.50;;;;;;;;;;5008214;28;20476;-68
2024/02/17 02:23:12;;;;;;;106.53;79.97;;;;;;;;;;5027254;28;20095;-68
2024/02/17 02:25:41;;;;;;;109.60;83.15;;;;;;;;;;4999090;28;20481;-68
2024/02/17 02:28:07;;;;;;;106.10;79.63;;;;;;;;;;5010969;28;20542;-68
2024/02/17 02:30:33;;;;;;;113.90;82.75;;;;;;;;;;5010781;28;20030;-68
2024/02/17 02:33:00;;;;;;;111.43;79.38;;;;;;;;;;5007980;28;20104;-68
2024/02/17 02:35:26;;;;;;;111.10;81.10;;;;;;;;;;5009708;28;20038;-68
2024/02/17 02:37:52;;;;;;;110.97;80.70;;;;;;;;;;5010907;28;20034;-68
2024/02/17 02:40:18;;;;;;;102.78;80.38;;;;;;;;;;5009143;28;20026;-68
2024/02/17 02:42:44;;;;;;;109.75;80.20;;;;;;;;;;5012270;28;20056;-68
2024/02/17 02:45:10;;;;;;;110.88;80.80;;;;;;;;;;5011976;28;20060;-68
2024/02/17 02:47:36;;;;;;;110.35;83.13;;;;;;;;;;5011768;28;20104;-68
2024/02/17 02:50:02;;;;;;;111.97;80.78;;;;;;;;;;5002012;28;20451;-68
2024/02/17 02:52:28;;;;;;;109.75;81.43;;;;;;;;;;5011791;28;20038;-68
2024/02/17 02:54:54;;;;;;;110.95;81.28;;;;;;;;;;5003763;28;20030;-68
2024/02/17 02:57:20;;;;;;;102.15;78.47;;;;;;;;;;5010275;28;20029;-67
2024/02/17 02:59:46;;;;;;;108.25;80.85;;;;;;;;;;5008449;28;20026;-68
2024/02/17 03:05:16;;;;;;;113.15;81.18;;;;;;;;;;5010434;28;20032;-68
2024/02/17 03:07:42;;;;;;;108.22;81.18;;;;;;;;;;4994001;28;20066;-68
2024/02/17 03:10:08;;;;;;;105.43;81.03;;;;;;;;;;5009656;28;20442;-68
2024/02/17 03:12:34;;;;;;;103.28;78.82;;;;;;;;;;5009355;28;20049;-68
2024/02/17 03:15:02;;;;;;;104.43;78.55;;;;;;;;;;5001396;28;20135;-67
2024/02/17 03:17:28;;;;;;;107.97;78.32;;;;;;;;;;5006602;28;20032;-67
2024/02/17 03:19:54;;;;;;;106.60;81.45;;;;;;;;;;5010038;28;20045;-68
2024/02/17 03:22:20;;;;;;;106.00;80.22;;;;;;;;;;5003669;28;20072;-68
2024/02/17 03:24:47;;;;;;;107.20;82.97;;;;;;;;;;5008907;28;20033;-67
2024/02/17 03:27:13;;;;;;;102.25;77.75;;;;;;;;;;5010486;28;20026;-68
2024/02/17 03:29:39;;;;;;;106.82;80.43;;;;;;;;;;5012242;28;20084;-68
2024/02/17 03:32:05;;;;;;;108.13;79.53;;;;;;;;;;5005785;28;20336;-67
2024/02/17 03:34:31;;;;;;;112.80;82.43;;;;;;;;;;5005078;28;20498;-68
2024/02/17 03:36:58;;;;;;;109.53;81.15;;;;;;;;;;5002201;28;20027;-67
2024/02/17 03:39:24;;;;;;;105.22;80.13;;;;;;;;;;5025631;28;20056;-68
2024/02/17 03:41:51;;;;;;;104.20;79.32;;;;;;;;;;4999209;28;20475;-68
2024/02/17 03:44:17;;;;;;;103.43;79.93;;;;;;;;;;5011899;28;20030;-67
2024/02/17 03:46:43;;;;;;;109.75;80.80;;;;;;;;;;5009232;28;20033;-68
2024/02/17 03:49:09;;;;;;;106.78;79.07;;;;;;;;;;5007250;28;20054;-68
2024/02/17 03:51:36;;;;;;;106.40;80.93;;;;;;;;;;5004934;28;20057;-68
2024/02/17 03:54:02;;;;;;;104.90;78.93;;;;;;;;;;5011349;28;20026;-68
2024/02/17 03:56:28;;;;;;;106.55;77.88;;;;;;;;;;5011530;28;20026;-68
2024/02/17 03:58:54;;;;;;;102.78;78.90;;;;;;;;;;5009693;28;20028;-68
2024/02/17 04:01:21;;;;;;;108.60;76.53;;;;;;;;;;5008360;28;20407;-67
2024/02/17 04:03:47;;;;;;;98.63;77.50;;;;;;;;;;5011270;28;20041;-68
2024/02/17 04:06:13;;;;;;;103.38;76.78;;;;;;;;;;5011389;28;20038;-67
2024/02/17 04:08:39;;;;;;;104.53;76.38;;;;;;;;;;5019689;28;20142;-68
2024/02/17 04:11:07;;;;;;;103.75;77.97;;;;;;;;;;5009679;28;20084;-67
2024/02/17 04:13:33;;;;;;;103.57;78.80;;;;;;;;;;5007602;28;20456;-67
2024/02/17 04:15:59;;;;;;;104.40;78.20;;;;;;;;;;4999816;28;20064;-67
2024/02/17 04:18:25;;;;;;;103.47;77.68;;;;;;;;;;5009131;28;20483;-67
2024/02/17 04:20:54;;;;;;;104.03;77.07;;;;;;;;;;5015189;28;20080;-67
2024/02/17 04:23:20;;;;;;;95.10;76.07;;;;;;;;;;5015134;28;20388;-67
2024/02/17 04:25:46;;;;;;;102.55;74.85;;;;;;;;;;5012815;28;20026;-67
2024/02/17 04:28:11;;;;;;;98.15;74.38;;;;;;;;;;5015469;28;20018;-67
2024/02/17 04:30:37;;;;;;;102.93;77.30;;;;;;;;;;5013473;28;20061;-67
2024/02/17 04:33:03;;;;;;;99.35;76.10;;;;;;;;;;5014943;28;20026;-67
2024/02/17 04:35:29;;;;;;;97.35;74.10;;;;;;;;;;5001743;28;20492;-67
2024/02/17 04:37:56;;;;;;;103.18;75.05;;;;;;;;;;5013783;28;20041;-67
2024/02/17 04:40:22;;;;;;;96.65;74.80;;;;;;;;;;5013150;28;20544;-67
2024/02/17 04:42:51;;;;;;;103.72;74.68;;;;;;;;;;5010467;28;20460;-67
2024/02/17 04:45:17;;;;;;;105.80;78.05;;;;;;;;;;5014949;28;20526;-67
2024/02/17 04:47:43;;;;;;;99.70;76.35;;;;;;;;;;5009627;28;20042;-67
2024/02/17 04:50:12;;;;;;;97.03;75.13;;;;;;;;;;5006767;28;20018;-67
2024/02/17 04:52:38;;;;;;;98.30;75.93;;;;;;;;;;5013950;28;20392;-67
2024/02/17 04:55:05;;;;;;;99.38;73.15;;;;;;;;;;5007617;28;20085;-67
2024/02/17 04:57:30;;;;;;;95.60;73.82;;;;;;;;;;5009508;28;20036;-67
2024/02/17 05:00:00;;;;;;;98.03;73.30;;;;;;;;;;5013255;28;20112;-67
2024/02/17 05:02:26;;;;;;;99.75;75.63;;;;;;;;;;5012233;28;20455;-67
2024/02/17 05:04:52;;;;;;;101.03;74.82;;;;;;;;;;5014656;28;20025;-67
2024/02/17 05:07:18;;;;;;;97.45;74.65;;;;;;;;;;5014612;28;20243;-67
2024/02/17 05:09:44;;;;;;;95.80;73.57;;;;;;;;;;5014134;28;20519;-68
2024/02/17 05:12:10;;;;;;;97.13;72.53;;;;;;;;;;5011934;28;20049;-68
2024/02/17 05:14:37;;;;;;;97.45;74.00;;;;;;;;;;5013873;28;20021;-68
2024/02/17 05:17:04;;;;;;;97.72;75.32;;;;;;;;;;5012998;28;20495;-67
2024/02/17 05:19:30;;;;;;;92.38;72.53;;;;;;;;;;5014105;28;20040;-68
2024/02/17 05:21:58;;;;;;;94.05;73.40;;;;;;;;;;5009477;28;20022;-68
2024/02/17 05:24:24;;;;;;;101.38;74.18;;;;;;;;;;5014422;28;20014;-68
2024/02/17 05:26:50;;;;;;;96.28;73.93;;;;;;;;;;5009663;28;20041;-68
2024/02/17 05:29:16;;;;;;;99.57;74.40;;;;;;;;;;5014575;28;20018;-68
2024/02/17 05:31:42;;;;;;;91.10;71.53;;;;;;;;;;5006290;28;20039;-68
2024/02/17 05:34:08;;;;;;;95.97;73.82;;;;;;;;;;5008029;28;20099;-67
2024/02/17 05:36:34;;;;;;;93.32;73.45;;;;;;;;;;5007977;28;20033;-68
2024/02/17 05:39:00;;;;;;;91.85;71.15;;;;;;;;;;5014247;28;20050;-67
2024/02/17 05:41:26;;;;;;;93.70;72.30;;;;;;;;;;5009065;28;20044;-68
2024/02/17 05:43:52;;;;;;;91.57;71.30;;;;;;;;;;5014272;28;20033;-68
2024/02/17 05:46:19;;;;;;;98.32;71.07;;;;;;;;;;5012128;28;20113;-68
2024/02/17 05:48:45;;;;;;;95.45;72.07;;;;;;;;;;5013219;28;20050;-68
2024/02/17 05:51:11;;;;;;;94.00;70.88;;;;;;;;;;5026436;28;20041;-68
2024/02/17 05:53:37;;;;;;;93.93;72.05;;;;;;;;;;5013374;28;20141;-68
2024/02/17 05:56:03;;;;;;;94.70;71.57;;;;;;;;;;5009667;28;20030;-68
2024/02/17 05:58:30;;;;;;;94.45;71.57;;;;;;;;;;5013785;28;20029;-68
2024/02/17 06:01:00;;;;;;;96.82;70.57;;;;;;;;;;5003326;28;20030;-68
2024/02/17 06:03:26;;;;;;;93.68;67.47;;;;;;;;;;5013266;28;20029;-68
2024/02/17 06:05:52;;;;;;;92.97;68.65;;;;;;;;;;5012921;28;20045;-68
2024/02/17 06:08:20;;;;;;;88.00;65.80;;;;;;;;;;5011971;28;20029;-68
2024/02/17 06:10:46;;;;;;;94.40;69.65;;;;;;;;;;5012232;28;20029;-68
2024/02/17 06:13:12;;;;;;;94.38;69.25;;;;;;;;;;5011527;28;20034;-68
2024/02/17 06:15:42;;;;;;;91.05;68.88;;;;;;;;;;5012991;28;20030;-68
2024/02/17 06:21:13;;;;;;;91.78;67.95;;;;;;;;;;5004260;28;20073;-68
2024/02/17 06:23:40;;;;;;;91.47;69.35;;;;;;;;;;5012793;28;20025;-68
2024/02/17 06:26:06;;;;;;;92.20;70.60;;;;;;;;;;5005011;28;20085;-68
2024/02/17 06:28:32;;;;;;;96.15;71.78;;;;;;;;;;5010896;28;20026;-68
2024/02/17 06:30:58;;;;;;;102.95;77.50;;;;;;;;;;5008661;28;20093;-67
2024/02/17 06:33:24;;;;;;;104.32;76.60;;;;;;;;;;5013081;28;20105;-67
2024/02/17 06:36:02;;;;;;;97.55;76.82;;;;;;;;;;5001204;28;20061;-68
2024/02/17 06:38:28;;;;;;;102.13;77.70;;;;;;;;;;5007631;28;20087;-68
2024/02/17 06:40:54;;;;;;;102.47;77.68;;;;;;;;;;5008624;28;20480;-68
2024/02/17 06:43:20;;;;;;;108.57;80.38;;;;;;;;;;5011058;28;20088;-68
2024/02/17 06:45:46;;;;;;;104.03;78.28;;;;;;;;;;4998707;28;20022;-68
2024/02/17 06:48:27;;;;;;;110.68;81.65;;;;;;;;;;5009211;28;20049;-68
2024/02/17 06:50:53;;;;;;;108.38;79.35;;;;;;;;;;5004683;28;20033;-68
2024/02/17 06:53:19;;;;;;;110.40;80.07;;;;;;;;;;4996924;28;20113;-68
2024/02/17 06:55:45;;;;;;;114.00;82.65;;;;;;;;;;5011285;28;20462;-68
2024/02/17 06:58:12;;;;;;;110.88;80.68;;;;;;;;;;5008742;28;20029;-68
2024/02/17 07:00:38;;;;;;;106.07;79.35;;;;;;;;;;5011348;28;20491;-68
2024/02/17 07:03:04;;;;;;;105.07;79.03;;;;;;;;;;5009758;28;20086;-68
2024/02/17 07:05:31;;;;;;;110.90;80.30;;;;;;;;;;5008940;28;20041;-68
2024/02/17 07:07:57;;;;;;;104.72;78.38;;;;;;;;;;5007538;28;20468;-68
2024/02/17 07:10:23;;;;;;;109.80;81.45;;;;;;;;;;5012345;28;20030;-68
2024/02/17 07:12:49;;;;;;;109.15;82.20;;;;;;;;;;5006253;28;20227;-68
2024/02/17 07:15:16;;;;;;;109.22;81.20;;;;;;;;;;5001118;28;20049;-68
2024/02/17 07:17:42;;;;;;;109.32;81.95;;;;;;;;;;5001320;28;20037;-68
2024/02/17 07:20:09;;;;;;;109.28;81.25;;;;;;;;;;5012073;28;20030;-68
2024/02/17 07:22:35;;;;;;;112.45;83.55;;;;;;;;;;5004880;28;20032;-68
2024/02/17 07:25:01;;;;;;;116.07;85.13;;;;;;;;;;5011062;28;20040;-68
2024/02/17 07:27:27;;;;;;;115.40;85.80;;;;;;;;;;5012171;28;20183;-68
2024/02/17 07:29:53;;;;;;;109.38;81.10;;;;;;;;;;5007612;28;20028;-68
2024/02/17 07:32:22;;;;;;;111.25;83.18;;;;;;;;;;5007436;28;20038;-68
2024/02/17 07:34:48;;;;;;;109.65;81.97;;;;;;;;;;5007180;28;20030;-64
2024/02/17 07:37:14;;;;;;;109.72;79.07;;;;;;;;;;5025727;28;20037;-63
2024/02/17 07:39:40;;;;;;;105.60;79.70;;;;;;;;;;5011982;28;20144;-64
2024/02/17 07:42:07;;;;;;;102.03;78.32;;;;;;;;;;5003477;28;20572;-64
2024/02/17 07:44:35;;;;;;;105.90;79.15;;;;;;;;;;5007765;28;20037;-64
2024/02/17 07:47:01;;;;;;;103.32;81.05;;;;;;;;;;5004650;28;20041;-63
2024/02/17 07:49:28;;;;;;;107.43;81.10;;;;;;;;;;5008143;28;20034;-64
2024/02/17 07:51:54;;;;;;;108.43;80.32;;;;;;;;;;5011744;28;20033;-64
2024/02/17 07:54:20;;;;;;;114.75;82.78;;;;;;;;;;5004319;28;20407;-64
2024/02/17 07:56:46;;;;;;;104.13;76.95;;;;;;;;;;5002202;28;20048;-64
2024/02/17 07:59:12;;;;;;;99.53;76.22;;;;;;;;;;5003515;28;20057;-64
2024/02/17 08:04:43;;;;;;;100.32;76.13;;;;;;;;;;4997441;28;20408;-63
2024/02/17 08:07:09;;;;;;;101.43;78.28;;;;;;;;;;5004253;28;20407;-64
2024/02/17 08:09:35;;;;;;;110.15;82.32;;;;;;;;;;5011289;28;20029;-64
2024/02/17 08:12:01;;;;;;;111.07;82.13;;;;;;;;;;5009561;28;20025;-64
2024/02/17 08:14:27;;;;;;;98.47;78.18;;;;;;;;;;5008999;28;20098;-64
2024/02/17 08:16:54;;;;;;;107.45;80.72;;;;;;;;;;5009473;28;20030;-64
2024/02/17 08:19:19;;;;;;;107.47;82.40;;;;;;;;;;5011505;28;20113;-64
2024/02/17 08:21:45;;;;;;;110.30;82.72;;;;;;;;;;5009691;28;20118;-65
2024/02/17 08:24:11;;;;;;;106.72;83.43;;;;;;;;;;5010527;28;20033;-64
2024/02/17 08:26:37;;;;;;;108.50;82.53;;;;;;;;;;5006690;28;20053;-65
2024/02/17 08:29:03;;;;;;;108.05;83.95;;;;;;;;;;5006677;28;20114;-62
2024/02/17 08:31:29;;;;;;;109.28;82.57;;;;;;;;;;5008386;28;20472;-58
2024/02/17 08:33:55;;;;;;;109.43;82.20;;;;;;;;;;5002763;28;20026;-62
2024/02/17 08:36:21;;;;;;;106.80;82.75;;;;;;;;;;5005855;28;20026;-61
2024/02/17 08:38:47;;;;;;;110.60;80.10;;;;;;;;;;5009097;28;20022;-61
2024/02/17 08:41:19;;;;;;;110.38;81.47;;;;;;;;;;5006870;28;20189;-61
2024/02/17 08:43:45;;;;;;;107.10;80.55;;;;;;;;;;5009992;28;20100;-61
2024/02/17 08:46:11;;;;;;;111.88;83.60;;;;;;;;;;5009986;28;20080;-62
2024/02/17 08:48:37;;;;;;;112.70;83.82;;;;;;;;;;5010393;28;20522;-61
2024/02/17 08:51:03;;;;;;;109.97;83.40;;;;;;;;;;5009671;28;20034;-62
2024/02/17 08:53:31;;;;;;;109.32;83.10;;;;;;;;;;5006724;28;20050;-62
2024/02/17 08:55:57;;;;;;;112.57;85.50;;;;;;;;;;5004355;28;20034;-62
2024/02/17 08:58:23;;;;;;;111.25;85.60;;;;;;;;;;5009941;28;20113;-61
2024/02/17 09:00:49;;;;;;;107.28;83.13;;;;;;;;;;5014960;28;20028;-61
2024/02/17 09:03:15;;;;;;;106.72;84.13;;;;;;;;;;5010161;28;20045;-62
2024/02/17 09:05:44;;;;;;;113.47;84.90;;;;;;;;;;5007336;28;20117;-63
2024/02/17 09:08:10;;;;;;;110.65;82.65;;;;;;;;;;5006304;28;20073;-63
2024/02/17 09:10:36;;;;;;;106.15;84.13;;;;;;;;;;5005931;28;20468;-63
2024/02/17 09:13:02;;;;;;;111.93;86.30;;;;;;;;;;5000848;28;20083;-60
2024/02/17 09:15:28;;;;;;;110.80;85.03;;;;;;;;;;5009801;28;20092;-62
2024/02/17 09:17:54;;;;;;;113.88;83.90;;;;;;;;;;5008192;28;20190;-62
2024/02/17 09:20:20;;;;;;;106.55;83.68;;;;;;;;;;5004625;28;20176;-62
2024/02/17 09:22:46;;;;;;;142.90;86.95;;;;;;;;;;4997792;28;20026;-61
2024/02/17 09:25:12;;;;;;;118.53;86.13;;;;;;;;;;5003748;28;20447;-62
2024/02/17 09:27:38;;;;;;;114.45;85.10;;;;;;;;;;5011113;28;20030;-64
2024/02/17 09:30:05;;;;;;;113.68;85.50;;;;;;;;;;5014375;28;20392;-54
2024/02/17 09:32:31;;;;;;;111.72;82.18;;;;;;;;;;5014138;28;20030;-57
2024/02/17 09:34:57;;;;;;;108.63;83.50;;;;;;;;;;5014275;28;20014;-57
2024/02/17 09:37:23;;;;;;;108.93;82.57;;;;;;;;;;5014419;28;20033;-55
2024/02/17 09:39:49;;;;;;;111.43;81.53;;;;;;;;;;5003225;28;20077;-55
2024/02/17 09:42:15;;;;;;;107.03;81.75;;;;;;;;;;5011407;28;20026;-54
2024/02/17 09:44:41;;;;;;;105.60;80.18;;;;;;;;;;4998872;28;20018;-57
2024/02/17 09:47:07;;;;;;;109.20;82.43;;;;;;;;;;5007430;28;20374;-53
2024/02/17 09:49:36;;;;;;;104.90;79.55;;;;;;;;;;5010741;28;20030;-52
2024/02/17 09:52:02;;;;;;;109.70;81.63;;;;;;;;;;5013847;28;20026;-54
2024/02/17 09:54:28;;;;;;;108.15;83.82;;;;;;;;;;5012200;28;20088;-55
2024/02/17 09:56:54;;;;;;;105.93;78.53;;;;;;;;;;5013976;28;20022;-55
2024/02/17 09:59:21;;;;;;;105.18;77.65;;;;;;;;;;5013812;28;20026;-57
2024/02/17 10:01:48;;;;;;;104.20;74.57;;;;;;;;;;5013789;28;20076;-57
2024/02/17 10:04:14;;;;;;;103.25;77.00;;;;;;;;;;5013732;28;20097;-57
2024/02/17 10:06:41;;;;;;;101.70;77.25;;;;;;;;;;5012521;28;20053;-56
2024/02/17 10:09:07;;;;;;;96.18;76.32;;;;;;;;;;5013708;28;20018;-56
2024/02/17 10:11:33;;;;;;;99.60;72.32;;;;;;;;;;5013906;28;20032;-55
2024/02/17 10:14:03;;;;;;;104.72;74.95;;;;;;;;;;5013739;28;20526;-57
2024/02/17 10:16:30;;;;;;;103.47;74.35;;;;;;;;;;4998891;28;20141;-56
2024/02/17 10:19:00;;;;;;;102.55;74.47;;;;;;;;;;5013128;28;20022;-55
2024/02/17 10:21:26;;;;;;;98.07;72.40;;;;;;;;;;5011887;28;20064;-56
2024/02/17 10:23:59;;;;;;;97.97;72.20;;;;;;;;;;5013180;28;20049;-53
2024/02/17 10:26:25;;;;;;;107.35;78.03;;;;;;;;;;5012786;28;20052;-54
2024/02/17 10:28:58;;;;;;;111.00;79.97;;;;;;;;;;5013177;28;20042;-56
2024/02/17 10:31:25;;;;;;;99.22;77.35;;;;;;;;;;5011357;28;20026;-56
2024/02/17 10:33:52;;;;;;;103.35;81.68;;;;;;;;;;5013456;28;20104;-57
2024/02/17 10:36:19;;;;;;;106.13;81.30;;;;;;;;;;5012691;28;20022;-57
2024/02/17 10:38:45;;;;;;;103.80;79.43;;;;;;;;;;5011785;28;20048;-56
2024/02/17 10:41:12;;;;;;;83.90;65.68;;;;;;;;;;5013225;28;20029;-55
2024/02/17 10:43:43;;;;;;;84.10;65.45;;;;;;;;;;5013133;28;20025;-54
2024/02/17 10:46:13;;;;;;;100.65;77.25;;;;;;;;;;5011073;28;20120;-56
2024/02/17 10:48:42;;;;;;;97.18;76.63;;;;;;;;;;5007372;28;20038;-56
2024/02/17 10:51:08;;;;;;;97.47;76.28;;;;;;;;;;5012647;28;20468;-56
2024/02/17 10:53:38;;;;;;;102.13;78.35;;;;;;;;;;5001394;28;20056;-57
2024/02/17 10:56:06;;;;;;;100.60;78.45;;;;;;;;;;5012546;28;20034;-56
2024/02/17 10:58:35;;;;;;;98.68;76.95;;;;;;;;;;5012326;28;20026;-57
2024/02/17 11:01:01;;;;;;;100.30;76.10;;;;;;;;;;5011124;28;20199;-57
2024/02/17 11:03:29;;;;;;;98.45;78.72;;;;;;;;;;5012218;28;20022;-57
2024/02/17 11:05:56;;;;;;;100.65;76.55;;;;;;;;;;5012734;28;20026;-57
2024/02/17 11:08:22;;;;;;;92.93;74.25;;;;;;;;;;5012585;28;20041;-58
2024/02/17 11:10:48;;;;;;;90.97;73.68;;;;;;;;;;5012422;28;20165;-57
2024/02/17 11:13:26;;;;;;;95.20;74.22;;;;;;;;;;5012249;28;20053;-56
2024/02/17 11:16:05;;;;;;;93.53;74.90;;;;;;;;;;5010927;28;20415;-57
2024/02/17 11:18:40;;;;;;;95.50;74.32;;;;;;;;;;5012246;28;20118;-47
2024/02/17 11:21:07;;;;;;;93.80;72.57;;;;;;;;;;5012616;28;20030;-61
2024/02/17 11:23:42;;;;;;;89.90;71.18;;;;;;;;;;5012252;28;20049;-62
2024/02/17 11:26:09;;;;;;;91.90;72.03;;;;;;;;;;5012589;28;20034;-61
2024/02/17 11:28:35;;;;;;;90.32;69.78;;;;;;;;;;5012083;28;20018;-61
2024/02/17 11:31:06;;;;;;;83.82;65.80;;;;;;;;;;5012071;28;20017;-61
2024/02/17 11:33:32;;;;;;;87.47;70.90;;;;;;;;;;4998899;28;20137;-61
2024/02/17 11:36:03;;;;;;;90.20;72.25;;;;;;;;;;5012054;28;20029;-61
2024/02/17 11:38:30;;;;;;;89.15;69.97;;;;;;;;;;5011800;28;20059;-61
2024/02/17 11:40:56;;;;;;;91.20;71.80;;;;;;;;;;5010543;28;20579;-61
2024/02/17 11:43:27;;;;;;;96.03;71.43;;;;;;;;;;5008698;28;20558;-61
2024/02/17 11:45:53;;;;;;;85.93;72.50;;;;;;;;;;5010523;28;20034;-61
2024/02/17 11:48:19;;;;;;;91.78;71.70;;;;;;;;;;5011680;28;20049;-61
2024/02/17 11:50:46;;;;;;;89.82;73.00;;;;;;;;;;5012059;28;20041;-61
2024/02/17 11:53:12;;;;;;;89.63;71.18;;;;;;;;;;5010718;28;20049;-61
2024/02/17 11:55:38;;;;;;;87.13;69.78;;;;;;;;;;5011777;28;20029;-61
2024/02/17 11:58:05;;;;;;;90.82;67.35;;;;;;;;;;5011646;28;20041;-61
2024/02/17 12:00:32;;;;;;;74.30;62.35;;;;;;;;;;5011583;28;20393;-61
2024/02/17 12:02:59;;;;;;;82.00;63.28;;;;;;;;;;5011716;28;20298;-60
2024/02/17 12:05:26;;;;;;;82.25;63.30;;;;;;;;;;5001754;28;20551;-60
2024/02/17 12:07:52;;;;;;;79.63;61.40;;;;;;;;;;5005697;28;20052;-59
2024/02/17 12:10:18;;;;;;;79.68;60.78;;;;;;;;;;5009726;28;20018;-59
2024/02/17 12:12:44;;;;;;;80.20;60.90;;;;;;;;;;5011548;28;20032;-59
2024/02/17 12:15:14;;;;;;;81.97;62.55;;;;;;;;;;5009417;28;20053;-60
2024/02/17 12:17:43;;;;;;;75.88;62.45;;;;;;;;;;5004183;28;20061;-59
2024/02/17 12:20:12;;;;;;;77.53;62.13;;;;;;;;;;5008709;28;20026;-59
2024/02/17 12:22:43;;;;;;;76.90;59.83;;;;;;;;;;5006675;28;20041;-59
2024/02/17 12:25:09;;;;;;;77.07;60.80;;;;;;;;;;5007484;28;20057;-59
2024/02/17 12:27:36;;;;;;;77.90;61.05;;;;;;;;;;5005634;28;20492;-59
2024/02/17 12:30:02;;;;;;;80.60;61.78;;;;;;;;;;5013227;28;20022;-60
2024/02/17 12:32:28;;;;;;;74.43;58.95;;;;;;;;;;5012181;28;20070;-60
2024/02/17 12:34:53;;;;;;;68.25;54.65;;;;;;;;;;5011840;28;20025;-59
2024/02/17 12:37:19;;;;;;;66.05;52.38;;;;;;;;;;5015248;28;20034;-59
2024/02/17 12:39:46;;;;;;;70.03;53.67;;;;;;;;;;5015460;28;20032;-59
2024/02/17 12:42:13;;;;;;;72.80;55.05;;;;;;;;;;5015301;28;20032;-59
2024/02/17 12:44:40;;;;;;;68.10;54.08;;;;;;;;;;5015297;28;20037;-59
2024/02/17 12:47:15;;;;;;;65.97;52.67;;;;;;;;;;5014958;28;20029;-59
2024/02/17 13:01:36;;;;;;;74.93;56.15;;;;;;;;;;5001257;28;20037;-59
2024/02/17 13:04:02;;;;;;;75.20;56.47;;;;;;;;;;5014972;28;20030;-60
2024/02/17 13:06:28;;;;;;;73.18;54.53;;;;;;;;;;5012893;28;20499;-59
2024/02/17 13:08:54;;;;;;;78.00;56.33;;;;;;;;;;5014787;28;20017;-60
2024/02/17 13:11:20;;;;;;;71.28;56.22;;;;;;;;;;5014689;28;20030;-60
2024/02/17 13:13:46;;;;;;;71.07;55.47;;;;;;;;;;5014502;28;20072;-60
2024/02/17 13:16:12;;;;;;;71.57;53.60;;;;;;;;;;5014452;28;20033;-61
2024/02/17 13:18:38;;;;;;;68.53;52.33;;;;;;;;;;5012964;28;20127;-59
2024/02/17 13:21:05;;;;;;;65.45;52.03;;;;;;;;;;5014109;28;20033;-60
2024/02/17 13:26:34;;;;;;;66.70;49.75;;;;;;;;;;5003870;28;20107;-60
2024/02/17 13:29:00;;;;;;;65.70;49.22;;;;;;;;;;5014560;28;20018;-60
2024/02/17 13:31:26;;;;;;;64.35;49.90;;;;;;;;;;5014462;28;20510;-60
2024/02/17 13:33:52;;;;;;;64.72;51.55;;;;;;;;;;5014515;28;20018;-60
2024/02/17 13:36:18;;;;;;;62.50;46.83;;;;;;;;;;5014172;28;20102;-60
2024/02/17 13:38:44;;;;;;;67.40;51.28;;;;;;;;;;5014391;28;20105;-60
2024/02/17 13:41:10;;;;;;;65.35;51.40;;;;;;;;;;5013994;28;20412;-60
2024/02/17 13:43:36;;;;;;;65.82;49.80;;;;;;;;;;5013009;28;20022;-61
2024/02/17 13:46:02;;;;;;;63.55;50.90;;;;;;;;;;5014122;28;20124;-60
2024/02/17 13:48:28;;;;;;;68.53;51.15;;;;;;;;;;5013950;28;20403;-60
2024/02/17 13:50:54;;;;;;;65.10;49.55;;;;;;;;;;5014171;28;20038;-60
2024/02/17 13:53:20;;;;;;;66.90;50.83;;;;;;;;;;5014055;28;20025;-60
2024/02/17 13:55:46;;;;;;;67.00;50.63;;;;;;;;;;5013986;28;20036;-60
2024/02/17 13:58:12;;;;;;;70.57;54.55;;;;;;;;;;5013763;28;20026;-59
2024/02/17 14:00:38;;;;;;;67.63;51.95;;;;;;;;;;5013763;28;20029;-59
2024/02/17 14:03:04;;;;;;;67.38;53.00;;;;;;;;;;5007817;28;20027;-60
2024/02/17 14:05:30;;;;;;;65.38;53.35;;;;;;;;;;5013641;28;20116;-59
2024/02/17 14:07:58;;;;;;;71.82;57.17;;;;;;;;;;5013618;28;20160;-60
2024/02/17 14:10:24;;;;;;;68.13;55.50;;;;;;;;;;5013590;28;20509;-60
2024/02/17 14:12:50;;;;;;;70.90;56.25;;;;;;;;;;5013523;28;20175;-60
2024/02/17 14:15:16;;;;;;;72.40;57.22;;;;;;;;;;5013335;28;20476;-60
2024/02/17 14:17:42;;;;;;;71.93;57.25;;;;;;;;;;5013296;28;20065;-60
2024/02/17 14:20:45;;;;;;;75.70;56.85;;;;;;;;;;5013234;28;20022;-60
2024/02/17 14:23:11;;;;;;;76.00;56.50;;;;;;;;;;5005213;28;20041;-60
2024/02/17 14:25:39;;;;;;;69.72;54.42;;;;;;;;;;5011027;28;20022;-60
2024/02/17 14:28:05;;;;;;;78.90;56.53;;;;;;;;;;5012621;28;20132;-60
2024/02/17 14:30:34;;;;;;;74.07;56.20;;;;;;;;;;5012524;28;20030;-60